Rosemark, Tennessee
Current Conditions -  °F | °C
As of 3:35 AM on Saturday 20 Dec 2014 (Local Time) from KNQA Reporting Station
Overcast Overcast  
Wind Chill: 37°   Ceiling: 6500
Heat Index: 37°   Visibility: 10mi
Dew Point: 34°   Wind: 3mph
Humidity: 87%   Direction: 10°N
Pressure: 30.23"   Gusts: NA
Location:  35.3343°N, 89.9316°W
Report Text: KNQA 200935Z AUTO 01003KT 10SM OVC065 03/01 A3023 RMK
Loading
Personal Weather Stations






























Interactive Weather Map New forecast layout! Learn more

10-Day Weather Forecast

Advertisements
Track Severe Weather on mobile